createdAt,value
2022-10-11T00:01:22.416Z,18.95
2022-10-11T00:03:48.899Z,22.40
2022-10-11T00:06:15.442Z,22.67
2022-10-11T00:08:42.090Z,20.95
2022-10-11T00:11:10.360Z,24.40
2022-10-11T00:13:36.811Z,16.73
2022-10-11T00:16:09.003Z,18.38
2022-10-11T00:18:35.520Z,18.13
2022-10-11T00:21:08.437Z,20.65
2022-10-11T00:23:35.350Z,18.30
2022-10-11T00:26:05.052Z,19.10
2022-10-11T00:28:32.588Z,18.30
2022-10-11T00:30:59.866Z,16.23
2022-10-11T00:33:26.354Z,15.32
2022-10-11T00:35:52.894Z,14.70
2022-10-11T00:38:19.429Z,19.80
2022-10-11T00:40:45.872Z,12.02
2022-10-11T00:43:21.934Z,14.50
2022-10-11T00:45:57.131Z,19.88
2022-10-11T00:48:44.627Z,16.48
2022-10-11T00:51:25.889Z,19.42
2022-10-11T00:53:53.362Z,16.02
2022-10-11T00:56:26.006Z,19.58
2022-10-11T00:58:56.049Z,17.77
2022-10-11T01:01:22.712Z,16.92
2022-10-11T01:03:49.309Z,17.23
2022-10-11T01:06:16.050Z,17.30
2022-10-11T01:08:43.149Z,19.70
2022-10-11T01:11:17.086Z,26.77
2022-10-11T01:14:06.338Z,18.90
2022-10-11T01:16:47.613Z,16.83
2022-10-11T01:19:28.725Z,20.00
2022-10-11T01:22:32.898Z,22.63
2022-10-11T01:25:24.533Z,16.80
2022-10-11T01:27:59.856Z,14.77
2022-10-11T01:30:30.204Z,16.38
2022-10-11T01:33:03.399Z,15.40
2022-10-11T01:35:45.357Z,22.65
2022-10-11T01:38:37.795Z,14.68
2022-10-11T01:41:09.688Z,17.35
2022-10-11T01:43:38.657Z,16.75
2022-10-11T01:46:07.661Z,19.63
2022-10-11T01:48:47.060Z,18.67
2022-10-11T01:51:14.093Z,12.50
2022-10-11T01:54:00.322Z,19.98
2022-10-11T01:56:45.522Z,15.48
2022-10-11T01:59:41.599Z,18.58
2022-10-11T02:02:32.711Z,19.33
2022-10-11T02:05:20.321Z,18.15
2022-10-11T02:07:58.214Z,19.65
2022-10-11T02:10:37.338Z,16.92
2022-10-11T02:13:13.201Z,21.73
2022-10-11T02:15:42.829Z,19.63
2022-10-11T02:18:18.149Z,20.40
2022-10-11T02:20:45.546Z,19.73
2022-10-11T02:23:16.982Z,24.45
2022-10-11T02:25:45.495Z,22.92
2022-10-11T02:28:19.048Z,18.20
2022-10-11T02:30:49.750Z,20.60
2022-10-11T02:33:24.631Z,17.83
2022-10-11T02:35:59.438Z,16.90
2022-10-11T02:38:32.012Z,20.00
2022-10-11T02:41:10.658Z,18.55
2022-10-11T02:43:41.710Z,21.08
2022-10-11T02:46:09.887Z,19.38
2022-10-11T02:48:37.372Z,18.95
2022-10-11T02:51:04.333Z,19.77
2022-10-11T02:53:30.979Z,20.25
2022-10-11T02:55:57.738Z,18.27
2022-10-11T02:58:24.181Z,14.63
2022-10-11T03:00:50.612Z,20.45
2022-10-11T03:03:17.102Z,17.77
2022-10-11T03:05:43.908Z,23.75
2022-10-11T03:08:12.765Z,20.35
2022-10-11T03:10:39.722Z,16.58
2022-10-11T03:13:06.995Z,17.50
2022-10-11T03:15:33.636Z,22.60
2022-10-11T03:18:00.433Z,18.83
2022-10-11T03:20:26.855Z,15.93
2022-10-11T03:22:53.394Z,22.48
2022-10-11T03:25:19.930Z,19.38
2022-10-11T03:27:46.322Z,17.33
2022-10-11T03:30:17.299Z,17.85
2022-10-11T03:32:45.028Z,17.08
2022-10-11T03:35:11.870Z,20.90
2022-10-11T03:37:38.550Z,20.55
2022-10-11T03:40:06.977Z,18.55
2022-10-11T03:42:33.423Z,21.08
2022-10-11T03:45:01.767Z,18.75
2022-10-11T03:47:28.266Z,17.58
2022-10-11T03:50:10.589Z,20.85
2022-10-11T03:52:37.384Z,21.92
2022-10-11T03:55:05.591Z,19.33
2022-10-11T03:57:32.170Z,19.65
2022-10-11T03:59:58.833Z,22.48
2022-10-11T04:02:25.422Z,22.60
2022-10-11T04:04:52.250Z,16.50
2022-10-11T04:07:18.727Z,20.02
2022-10-11T04:09:45.511Z,22.52
2022-10-11T04:12:12.083Z,18.92
2022-10-11T04:14:38.546Z,24.27
2022-10-11T04:17:04.970Z,23.50
2022-10-11T04:19:31.707Z,15.93
2022-10-11T04:21:58.410Z,19.70
2022-10-11T04:24:25.105Z,20.98
2022-10-11T04:26:59.202Z,19.38
2022-10-11T04:29:28.866Z,19.75
2022-10-11T04:31:58.774Z,23.80
2022-10-11T04:34:25.605Z,17.45
2022-10-11T04:36:52.205Z,19.20
2022-10-11T04:39:18.844Z,21.05
2022-10-11T04:41:45.533Z,21.52
2022-10-11T04:44:12.133Z,18.95
2022-10-11T04:46:38.561Z,18.25
2022-10-11T04:49:05.426Z,20.20
2022-10-11T04:51:33.604Z,19.23
2022-10-11T04:54:00.129Z,22.38
2022-10-11T04:56:26.561Z,20.55
2022-10-11T04:58:54.469Z,19.25
2022-10-11T05:01:21.673Z,23.08
2022-10-11T05:03:49.505Z,22.33
2022-10-11T05:06:16.043Z,21.05
2022-10-11T05:08:42.632Z,21.70
2022-10-11T05:11:15.512Z,24.75
2022-10-11T05:13:43.362Z,19.60
2022-10-11T05:16:11.302Z,20.65
2022-10-11T05:18:39.021Z,25.13
2022-10-11T05:21:15.170Z,22.30
2022-10-11T05:23:42.110Z,16.60
2022-10-11T05:26:08.897Z,20.35
2022-10-11T05:28:35.523Z,19.00
2022-10-11T05:31:02.066Z,21.90
2022-10-11T05:33:28.548Z,21.05
2022-10-11T05:35:55.064Z,20.55
2022-10-11T05:38:22.827Z,22.00
2022-10-11T05:40:49.382Z,26.13
2022-10-11T05:43:16.185Z,21.42
2022-10-11T05:45:44.092Z,23.27
2022-10-11T05:48:11.412Z,24.25
2022-10-11T05:50:38.911Z,25.65
2022-10-11T05:53:06.091Z,25.77
2022-10-11T05:55:37.654Z,27.45
2022-10-11T05:58:05.689Z,26.83
2022-10-11T06:00:32.177Z,30.45
2022-10-11T06:02:58.653Z,34.13
2022-10-11T06:05:25.147Z,31.42
2022-10-11T06:07:51.630Z,31.67
2022-10-11T06:10:18.159Z,31.88
2022-10-11T06:12:44.569Z,28.15
2022-10-11T06:15:11.240Z,33.03
2022-10-11T06:17:38.096Z,33.65
2022-10-11T06:20:04.927Z,33.58
2022-10-11T06:22:31.370Z,41.67
2022-10-11T06:24:57.803Z,35.63
2022-10-11T06:27:26.883Z,48.63
2022-10-11T06:29:53.321Z,47.50
2022-10-11T06:32:19.877Z,50.28
2022-10-11T06:34:48.609Z,54.17
2022-10-11T06:37:15.434Z,65.25
2022-10-11T06:39:42.309Z,54.47
2022-10-11T06:42:11.301Z,52.15
2022-10-11T06:44:38.544Z,59.50
2022-10-11T06:47:08.723Z,53.50
2022-10-11T06:49:35.344Z,58.15
2022-10-11T06:52:01.792Z,58.70
2022-10-11T06:54:28.359Z,59.33
2022-10-11T06:56:54.817Z,54.08
2022-10-11T06:59:21.385Z,59.88
2022-10-11T07:01:47.851Z,59.63
2022-10-11T07:04:14.339Z,56.95
2022-10-11T07:06:41.495Z,67.28
2022-10-11T07:09:08.550Z,62.92
2022-10-11T07:11:35.820Z,56.42
2022-10-11T07:14:07.550Z,54.05
2022-10-11T09:34:06.097Z,81.78
2022-10-11T09:36:43.088Z,80.28
2022-10-11T09:39:33.215Z,77.53
2022-10-11T09:42:07.829Z,72.45
2022-10-11T09:44:39.170Z,80.78
2022-10-11T09:47:20.388Z,65.38
2022-10-11T09:50:15.012Z,65.95
2022-10-11T09:52:56.267Z,65.72
2022-10-11T09:55:36.409Z,65.00
2022-10-11T09:58:05.903Z,67.38
2022-10-11T10:00:34.012Z,65.53
2022-10-11T10:04:09.301Z,64.93
2022-10-11T10:07:10.887Z,70.32
2022-10-11T10:09:46.717Z,60.35
2022-10-11T10:12:43.629Z,61.67
2022-10-11T10:15:34.828Z,56.45
2022-10-11T10:18:19.088Z,57.08
2022-10-11T10:20:52.855Z,53.78
2022-10-11T10:23:25.047Z,50.85
2022-10-11T10:26:37.227Z,52.30
2022-10-11T10:45:30.378Z,51.38
2022-10-11T10:53:03.211Z,47.95
2022-10-11T10:56:45.633Z,43.83
2022-10-11T12:36:40.326Z,15.00
2022-10-11T14:56:36.512Z,17.38
2022-10-11T16:17:41.786Z,16.00
2022-10-11T16:20:08.841Z,13.07
2022-10-11T16:22:35.891Z,14.90
2022-10-11T16:25:02.671Z,20.45
2022-10-11T16:27:29.270Z,16.23
2022-10-11T16:29:56.200Z,14.45
2022-10-11T16:32:24.187Z,19.25
2022-10-11T16:34:50.844Z,17.27
2022-10-11T16:37:17.407Z,18.60
2022-10-11T16:39:43.927Z,16.73
2022-10-11T16:42:10.564Z,19.50
2022-10-11T16:44:38.826Z,17.50
2022-10-11T16:47:05.949Z,20.95
2022-10-11T16:49:32.870Z,18.70
2022-10-11T16:52:00.161Z,16.65
2022-10-11T16:54:33.010Z,17.58
2022-10-11T16:56:59.680Z,18.52
2022-10-11T16:59:26.184Z,15.95
2022-10-11T17:01:52.676Z,21.83
2022-10-11T17:04:19.234Z,17.48
2022-10-11T17:06:45.794Z,15.60
2022-10-11T17:09:12.886Z,18.65
2022-10-11T17:11:39.841Z,16.60
2022-10-11T17:14:07.096Z,22.25
2022-10-11T17:16:34.537Z,16.75
2022-10-11T17:19:01.773Z,16.38
2022-10-11T17:21:28.312Z,18.17
2022-10-11T17:23:55.026Z,17.20
2022-10-11T17:26:26.574Z,24.48
2022-10-11T17:28:54.717Z,18.67
2022-10-11T17:31:21.881Z,20.58
2022-10-11T17:33:48.478Z,19.60
2022-10-11T17:36:17.303Z,19.92
2022-10-11T17:38:44.015Z,17.38
2022-10-11T17:41:10.982Z,21.38
2022-10-11T17:43:37.492Z,24.65
2022-10-11T17:46:06.117Z,16.50
2022-10-11T17:48:36.556Z,21.33
2022-10-11T17:51:11.612Z,15.95
2022-10-11T17:53:39.154Z,19.05
2022-10-11T17:56:09.467Z,19.38
2022-10-11T17:58:36.087Z,21.88
2022-10-11T18:01:08.935Z,17.50
2022-10-11T18:03:36.046Z,20.20
2022-10-11T18:06:04.741Z,18.42
2022-10-11T18:08:32.759Z,23.58
2022-10-11T18:11:04.067Z,20.63
2022-10-11T18:13:30.879Z,18.80
2022-10-11T18:15:57.434Z,17.73
2022-10-11T18:18:23.958Z,20.60
2022-10-11T18:20:50.853Z,20.88
2022-10-11T18:23:18.767Z,17.58
2022-10-11T18:25:48.623Z,19.23
2022-10-11T18:28:17.502Z,19.38
2022-10-11T18:30:46.466Z,17.63
2022-10-11T18:33:14.591Z,19.48
2022-10-11T18:35:41.395Z,16.35
2022-10-11T18:38:08.808Z,17.33
2022-10-11T18:40:43.428Z,16.45
2022-10-11T18:43:13.336Z,21.02
2022-10-11T18:45:39.811Z,18.90
2022-10-11T18:48:08.487Z,22.60
2022-10-11T18:50:35.522Z,19.00
2022-10-11T18:53:02.138Z,23.38
2022-10-11T18:55:28.706Z,22.25
2022-10-11T18:57:55.127Z,19.08
2022-10-11T19:00:40.108Z,19.55
2022-10-11T19:03:07.415Z,18.70
2022-10-11T19:05:33.849Z,19.73
2022-10-11T19:08:00.298Z,17.08
2022-10-11T19:10:26.748Z,19.90
2022-10-11T19:12:53.233Z,21.90
2022-10-11T19:15:19.707Z,22.20
2022-10-11T19:17:46.191Z,18.92
2022-10-11T19:20:12.734Z,23.40
2022-10-11T19:22:39.180Z,22.20
2022-10-11T19:25:06.233Z,19.52
2022-10-11T19:27:32.705Z,20.70
2022-10-11T19:30:00.314Z,19.85
2022-10-11T19:32:26.915Z,27.52
2022-10-11T19:34:53.563Z,17.38
2022-10-11T19:37:20.254Z,27.65
2022-10-11T19:39:46.704Z,27.95
2022-10-11T19:42:13.199Z,25.65
2022-10-11T19:44:39.906Z,19.75
2022-10-11T19:47:06.588Z,21.90
2022-10-11T19:49:33.471Z,25.23
2022-10-11T19:52:01.131Z,21.15
2022-10-11T19:54:28.139Z,20.40
2022-10-11T19:56:54.683Z,21.90
2022-10-11T19:59:21.342Z,30.40
2022-10-11T20:01:52.682Z,21.58
2022-10-11T20:04:51.167Z,23.33
2022-10-11T20:07:07.220Z,25.02
2022-10-11T20:09:33.710Z,34.72
2022-10-11T20:12:00.148Z,30.08
2022-10-11T20:14:26.746Z,29.70
2022-10-11T20:16:53.505Z,29.58
2022-10-11T20:19:24.871Z,27.05
2022-10-11T20:21:55.523Z,27.73
2022-10-11T20:24:22.435Z,34.35
2022-10-11T20:26:48.892Z,30.95
2022-10-11T20:29:15.305Z,28.90
2022-10-11T20:31:42.788Z,25.10
2022-10-11T20:34:10.066Z,24.45
2022-10-11T20:36:36.637Z,27.70
2022-10-11T20:39:04.716Z,26.52
2022-10-11T20:41:33.637Z,24.30
2022-10-11T20:44:01.278Z,24.40
2022-10-11T20:46:31.205Z,24.23
2022-10-11T20:49:01.803Z,22.02
2022-10-11T20:51:33.735Z,23.55
2022-10-11T20:54:01.831Z,23.75
2022-10-11T20:56:28.431Z,26.73
2022-10-11T20:58:56.206Z,28.02
2022-10-11T21:01:28.828Z,24.50
2022-10-11T21:03:57.881Z,23.92
2022-10-11T21:06:26.088Z,19.80
2022-10-11T21:08:58.860Z,23.45
2022-10-11T21:11:31.037Z,19.63
2022-10-11T21:13:59.004Z,25.13
2022-10-11T21:16:26.014Z,30.95
2022-10-11T21:18:54.477Z,24.88
2022-10-11T21:21:21.698Z,25.60
2022-10-11T21:23:48.146Z,24.50
2022-10-11T21:26:18.280Z,19.67
2022-10-11T21:28:46.107Z,25.98
2022-10-11T21:31:16.129Z,24.83
2022-10-11T21:33:44.216Z,22.95
2022-10-11T21:36:13.644Z,23.38
2022-10-11T21:41:08.861Z,23.70
2022-10-11T21:43:37.930Z,23.17
2022-10-11T21:46:19.847Z,22.05
2022-10-11T21:48:47.302Z,25.27
2022-10-11T21:51:30.695Z,22.70
2022-10-11T21:54:00.207Z,23.73
2022-10-11T21:56:30.089Z,23.58
2022-10-11T21:58:56.854Z,27.45
2022-10-11T22:01:23.750Z,20.02
2022-10-11T22:03:53.796Z,28.20
2022-10-11T22:06:20.964Z,22.67
2022-10-11T22:08:48.799Z,23.13
2022-10-11T22:11:15.633Z,22.27
2022-10-11T22:13:42.530Z,28.35
2022-10-11T22:16:11.306Z,26.00
2022-10-11T22:18:38.124Z,22.58
2022-10-11T22:21:07.659Z,25.63
2022-10-11T22:23:34.503Z,24.05
2022-10-11T22:26:11.729Z,24.48
2022-10-11T22:28:38.313Z,22.10
2022-10-11T22:31:06.172Z,22.58
2022-10-11T22:33:33.169Z,19.83
2022-10-11T22:36:01.595Z,25.08
2022-10-11T22:38:28.470Z,27.92
2022-10-11T22:40:57.899Z,24.67
2022-10-11T22:45:50.908Z,26.60
2022-10-11T22:48:17.457Z,23.08
2022-10-11T22:50:43.955Z,23.52
2022-10-11T22:53:12.499Z,23.02
2022-10-11T22:55:39.043Z,23.88
2022-10-11T22:58:05.635Z,22.58
2022-10-11T23:00:32.809Z,23.73
2022-10-11T23:02:59.357Z,23.52
2022-10-11T23:05:26.297Z,20.83
2022-10-11T23:07:52.997Z,23.80
2022-10-11T23:10:19.850Z,21.60
2022-10-11T23:12:46.384Z,26.63
2022-10-11T23:15:12.987Z,24.60
2022-10-11T23:17:39.753Z,23.73
2022-10-11T23:20:07.138Z,24.10
2022-10-11T23:22:33.646Z,20.98
2022-10-11T23:25:00.199Z,22.80
2022-10-11T23:27:28.074Z,19.70
2022-10-11T23:29:54.712Z,22.55
2022-10-11T23:32:21.441Z,20.25
2022-10-11T23:34:48.418Z,24.98
2022-10-11T23:37:14.943Z,21.67
2022-10-11T23:39:41.703Z,21.48
2022-10-11T23:42:08.256Z,22.20
2022-10-11T23:44:34.882Z,19.55
2022-10-11T23:47:01.454Z,23.42
2022-10-11T23:49:28.138Z,19.98
2022-10-11T23:51:54.721Z,22.42
2022-10-11T23:54:21.370Z,20.27
2022-10-11T23:56:48.437Z,24.23
2022-10-11T23:59:14.967Z,20.27
